sensor_id;sensor_type;location;lat;lon;timestamp;P1;durP1;ratioP1;P2;durP2;ratioP2
15498;SDS011;7851;52.260;6.030;2023-05-23T03:25:36;15;;;8.8;;
15498;SDS011;7851;52.260;6.030;2023-05-23T03:26:34;14.5;;;8.4;;
15498;SDS011;7851;52.260;6.030;2023-05-23T03:27:35;14;;;9;;
15498;SDS011;7851;52.260;6.030;2023-05-23T03:28:34;14;;;9;;
15498;SDS011;7851;52.260;6.030;2023-05-23T03:29:35;14.2;;;8.6;;
15498;SDS011;7851;52.260;6.030;2023-05-23T03:30:35;12.7;;;8.4;;
15498;SDS011;7851;52.260;6.030;2023-05-23T03:31:34;13.9;;;8.7;;
15498;SDS011;7851;52.260;6.030;2023-05-23T03:32:34;13.9;;;8.3;;
15498;SDS011;7851;52.260;6.030;2023-05-23T03:33:34;13.3;;;8.2;;
15498;SDS011;7851;52.260;6.030;2023-05-23T03:34:34;14.2;;;8.7;;
15498;SDS011;7851;52.260;6.030;2023-05-23T03:35:35;13.9;;;7.6;;
15498;SDS011;7851;52.260;6.030;2023-05-23T03:36:34;15.9;;;8.5;;
15498;SDS011;7851;52.260;6.030;2023-05-23T03:37:35;13.1;;;8.2;;
15498;SDS011;7851;52.260;6.030;2023-05-23T03:38:35;14.1;;;8.2;;
15498;SDS011;7851;52.260;6.030;2023-05-23T03:39:34;13.1;;;8.4;;
15498;SDS011;7851;52.260;6.030;2023-05-23T03:40:34;11.7;;;7.9;;
15498;SDS011;7851;52.260;6.030;2023-05-23T03:41:34;14.3;;;7.8;;
15498;SDS011;7851;52.260;6.030;2023-05-23T03:42:35;16.2;;;8.4;;
15498;SDS011;7851;52.260;6.030;2023-05-23T03:43:34;13.1;;;8;;
15498;SDS011;7851;52.260;6.030;2023-05-23T03:44:35;9.1;;;7.2;;
15498;SDS011;7851;52.260;6.030;2023-05-23T03:45:34;13.8;;;7.7;;
15498;SDS011;7851;52.260;6.030;2023-05-23T03:46:36;13.1;;;7.9;;
15498;SDS011;7851;52.260;6.030;2023-05-23T03:47:34;13.9;;;7.8;;
15498;SDS011;7851;52.260;6.030;2023-05-23T03:48:34;13.1;;;7.4;;
15498;SDS011;7851;52.260;6.030;2023-05-23T03:49:34;14.3;;;7.6;;
15498;SDS011;7851;52.260;6.030;2023-05-23T03:50:34;16.8;;;8;;
15498;SDS011;7851;52.260;6.030;2023-05-23T03:51:34;10.5;;;7.5;;
15498;SDS011;7851;52.260;6.030;2023-05-23T03:52:34;13.6;;;8;;
15498;SDS011;7851;52.260;6.030;2023-05-23T03:53:34;10;;;7.2;;
15498;SDS011;7851;52.260;6.030;2023-05-23T03:54:35;10.9;;;7.3;;
15498;SDS011;7851;52.260;6.030;2023-05-23T03:55:34;13.1;;;7.3;;
15498;SDS011;7851;52.260;6.030;2023-05-23T03:56:37;12.8;;;8;;
15498;SDS011;7851;52.260;6.030;2023-05-23T03:57:34;12.2;;;7.9;;
15498;SDS011;7851;52.260;6.030;2023-05-23T03:58:35;14.6;;;7.8;;
15498;SDS011;7851;52.260;6.030;2023-05-23T03:59:34;12.8;;;7.4;;
15498;SDS011;7851;52.260;6.030;2023-05-23T04:00:34;13.4;;;7.6;;
15498;SDS011;7851;52.260;6.030;2023-05-23T04:01:34;14.9;;;8.2;;
15498;SDS011;7851;52.260;6.030;2023-05-23T04:02:34;9.9;;;7.4;;
15498;SDS011;7851;52.260;6.030;2023-05-23T04:03:34;11;;;7.4;;
15498;SDS011;7851;52.260;6.030;2023-05-23T04:04:34;13.8;;;7;;
15498;SDS011;7851;52.260;6.030;2023-05-23T04:05:34;11.7;;;7.2;;
15498;SDS011;7851;52.260;6.030;2023-05-23T04:06:35;10.4;;;7;;
15498;SDS011;7851;52.260;6.030;2023-05-23T04:07:36;13.6;;;7;;
15498;SDS011;7851;52.260;6.030;2023-05-23T04:08:34;12.9;;;6.8;;
15498;SDS011;7851;52.260;6.030;2023-05-23T04:09:34;11.5;;;7.2;;
15498;SDS011;7851;52.260;6.030;2023-05-23T04:10:34;9.6;;;6.9;;
15498;SDS011;7851;52.260;6.030;2023-05-23T04:11:34;10.1;;;6.8;;
15498;SDS011;7851;52.260;6.030;2023-05-23T04:12:34;13.3;;;7.2;;
15498;SDS011;7851;52.260;6.030;2023-05-23T04:13:34;12.7;;;6.8;;
15498;SDS011;7851;52.260;6.030;2023-05-23T04:14:34;11.3;;;7;;
15498;SDS011;7851;52.260;6.030;2023-05-23T04:15:34;11.5;;;7.4;;
15498;SDS011;7851;52.260;6.030;2023-05-23T04:16:35;14.7;;;6.9;;
15498;SDS011;7851;52.260;6.030;2023-05-23T04:17:34;11.4;;;6.9;;
15498;SDS011;7851;52.260;6.030;2023-05-23T04:18:35;10.7;;;6.9;;
15498;SDS011;7851;52.260;6.030;2023-05-23T04:19:34;13.3;;;7.5;;
15498;SDS011;7851;52.260;6.030;2023-05-23T04:20:34;13.9;;;7.2;;
15498;SDS011;7851;52.260;6.030;2023-05-23T04:21:35;13.2;;;7.1;;
15498;SDS011;7851;52.260;6.030;2023-05-23T04:22:34;14.3;;;7.6;;
15498;SDS011;7851;52.260;6.030;2023-05-23T04:23:34;14.7;;;7.7;;
15498;SDS011;7851;52.260;6.030;2023-05-23T04:24:34;12.6;;;7.5;;
15498;SDS011;7851;52.260;6.030;2023-05-23T04:25:34;13.9;;;7.8;;
15498;SDS011;7851;52.260;6.030;2023-05-23T04:26:34;18.6;;;6.7;;
15498;SDS011;7851;52.260;6.030;2023-05-23T04:27:34;12.5;;;7.6;;
15498;SDS011;7851;52.260;6.030;2023-05-23T04:28:36;15.6;;;8;;
15498;SDS011;7851;52.260;6.030;2023-05-23T04:29:34;11.8;;;7.1;;
15498;SDS011;7851;52.260;6.030;2023-05-23T04:30:34;12.9;;;7.8;;
15498;SDS011;7851;52.260;6.030;2023-05-23T04:31:35;10.1;;;7.4;;
15498;SDS011;7851;52.260;6.030;2023-05-23T04:32:34;13.2;;;7.9;;
15498;SDS011;7851;52.260;6.030;2023-05-23T04:33:34;15.8;;;8;;
15498;SDS011;7851;52.260;6.030;2023-05-23T04:34:34;12.7;;;7.4;;
15498;SDS011;7851;52.260;6.030;2023-05-23T04:35:34;15.6;;;7.7;;
15498;SDS011;7851;52.260;6.030;2023-05-23T04:36:34;12.6;;;7.6;;
15498;SDS011;7851;52.260;6.030;2023-05-23T04:37:34;14.3;;;7.6;;
15498;SDS011;7851;52.260;6.030;2023-05-23T04:38:34;11.5;;;7.6;;
15498;SDS011;7851;52.260;6.030;2023-05-23T04:39:35;11.3;;;7;;
15498;SDS011;7851;52.260;6.030;2023-05-23T04:40:34;19.2;;;8;;
15498;SDS011;7851;52.260;6.030;2023-05-23T04:41:34;21.5;;;8.5;;
15498;SDS011;7851;52.260;6.030;2023-05-23T04:42:34;14.2;;;7.7;;
15498;SDS011;7851;52.260;6.030;2023-05-23T04:43:35;15.6;;;8.3;;
15498;SDS011;7851;52.260;6.030;2023-05-23T04:44:34;15.2;;;8.9;;
15498;SDS011;7851;52.260;6.030;2023-05-23T04:45:34;17.8;;;8.8;;
15498;SDS011;7851;52.260;6.030;2023-05-23T04:46:34;19.1;;;8.4;;
15498;SDS011;7851;52.260;6.030;2023-05-23T04:47:34;16.5;;;8.7;;
15498;SDS011;7851;52.260;6.030;2023-05-23T04:48:34;18.8;;;8.4;;
15498;SDS011;7851;52.260;6.030;2023-05-23T04:49:34;22.5;;;8.8;;
15498;SDS011;7851;52.260;6.030;2023-05-23T04:50:34;14.4;;;7.9;;
15498;SDS011;7851;52.260;6.030;2023-05-23T04:51:35;12.3;;;7.7;;
15498;SDS011;7851;52.260;6.030;2023-05-23T04:52:34;15.5;;;8.1;;
15498;SDS011;7851;52.260;6.030;2023-05-23T04:53:34;12.2;;;8.2;;
15498;SDS011;7851;52.260;6.030;2023-05-23T04:54:34;18.5;;;8.7;;
15498;SDS011;7851;52.260;6.030;2023-05-23T04:55:34;14.8;;;8.5;;
15498;SDS011;7851;52.260;6.030;2023-05-23T04:56:34;17.4;;;7.9;;
15498;SDS011;7851;52.260;6.030;2023-05-23T04:57:34;17.4;;;8;;
15498;SDS011;7851;52.260;6.030;2023-05-23T04:58:34;13.1;;;8.1;;
15498;SDS011;7851;52.260;6.030;2023-05-23T04:59:34;14.8;;;8.3;;
15498;SDS011;7851;52.260;6.030;2023-05-23T05:00:34;14.1;;;8.2;;
15498;SDS011;7851;52.260;6.030;2023-05-23T05:01:34;14.4;;;8.4;;
15498;SDS011;7851;52.260;6.030;2023-05-23T05:02:34;16.9;;;9;;
15498;SDS011;7851;52.260;6.030;2023-05-23T05:03:35;17.5;;;8.4;;
15498;SDS011;7851;52.260;6.030;2023-05-23T05:04:34;14.8;;;7.9;;
15498;SDS011;7851;52.260;6.030;2023-05-23T05:05:34;17.1;;;8.3;;
15498;SDS011;7851;52.260;6.030;2023-05-23T05:06:34;17.7;;;7.9;;
15498;SDS011;7851;52.260;6.030;2023-05-23T05:07:34;15;;;8;;
15498;SDS011;7851;52.260;6.030;2023-05-23T05:08:34;14.8;;;7.1;;
15498;SDS011;7851;52.260;6.030;2023-05-23T05:09:35;17.7;;;8;;
15498;SDS011;7851;52.260;6.030;2023-05-23T05:10:34;15.8;;;7;;
15498;SDS011;7851;52.260;6.030;2023-05-23T05:11:35;12.5;;;7.1;;
15498;SDS011;7851;52.260;6.030;2023-05-23T05:12:34;14.1;;;7.1;;
15498;SDS011;7851;52.260;6.030;2023-05-23T05:13:34;11.8;;;6.9;;
15498;SDS011;7851;52.260;6.030;2023-05-23T05:14:35;14.6;;;7.7;;
15498;SDS011;7851;52.260;6.030;2023-05-23T05:15:37;13.8;;;7.5;;
15498;SDS011;7851;52.260;6.030;2023-05-23T05:16:34;12.1;;;7;;
15498;SDS011;7851;52.260;6.030;2023-05-23T05:17:34;11;;;7;;
15498;SDS011;7851;52.260;6.030;2023-05-23T05:18:34;16.1;;;7.5;;
15498;SDS011;7851;52.260;6.030;2023-05-23T05:19:34;14.5;;;7.9;;
15498;SDS011;7851;52.260;6.030;2023-05-23T05:20:34;14;;;7.5;;
15498;SDS011;7851;52.260;6.030;2023-05-23T05:21:34;16.3;;;7.6;;
15498;SDS011;7851;52.260;6.030;2023-05-23T05:22:34;16.1;;;7.2;;
15498;SDS011;7851;52.260;6.030;2023-05-23T05:23:35;16.5;;;7.8;;
15498;SDS011;7851;52.260;6.030;2023-05-23T05:24:34;14.9;;;7.5;;
15498;SDS011;7851;52.260;6.030;2023-05-23T05:25:34;16.2;;;7.6;;
15498;SDS011;7851;52.260;6.030;2023-05-23T05:26:35;13.8;;;7.1;;
15498;SDS011;7851;52.260;6.030;2023-05-23T05:27:34;13;;;7.3;;
15498;SDS011;7851;52.260;6.030;2023-05-23T05:28:34;13.6;;;7.1;;
15498;SDS011;7851;52.260;6.030;2023-05-23T05:35:34;14.6;;;7.3;;
15498;SDS011;7851;52.260;6.030;2023-05-23T05:36:34;13.2;;;7.6;;
15498;SDS011;7851;52.260;6.030;2023-05-23T05:37:34;13.6;;;7.4;;
15498;SDS011;7851;52.260;6.030;2023-05-23T05:38:34;16.5;;;7.5;;
15498;SDS011;7851;52.260;6.030;2023-05-23T05:39:34;15.2;;;7.6;;
15498;SDS011;7851;52.260;6.030;2023-05-23T05:40:34;15.7;;;7.5;;
15498;SDS011;7851;52.260;6.030;2023-05-23T05:41:36;16.4;;;7.9;;
15498;SDS011;7851;52.260;6.030;2023-05-23T05:42:34;14.7;;;7.4;;
15498;SDS011;7851;52.260;6.030;2023-05-23T05:43:37;12.5;;;7.7;;
15498;SDS011;7851;52.260;6.030;2023-05-23T05:44:39;15.3;;;7.7;;
15498;SDS011;7851;52.260;6.030;2023-05-23T05:45:34;17.1;;;7.9;;
15498;SDS011;7851;52.260;6.030;2023-05-23T05:46:34;18.1;;;8.1;;
15498;SDS011;7851;52.260;6.030;2023-05-23T05:47:34;15.4;;;7.7;;
15498;SDS011;7851;52.260;6.030;2023-05-23T05:48:34;13;;;7.6;;
15498;SDS011;7851;52.260;6.030;2023-05-23T05:49:34;16.9;;;7.8;;
15498;SDS011;7851;52.260;6.030;2023-05-23T05:50:34;14.6;;;7.6;;
15498;SDS011;7851;52.260;6.030;2023-05-23T05:51:34;13.9;;;7.7;;
15498;SDS011;7851;52.260;6.030;2023-05-23T05:52:34;13.2;;;7.7;;
15498;SDS011;7851;52.260;6.030;2023-05-23T05:53:34;17.1;;;7.6;;
15498;SDS011;7851;52.260;6.030;2023-05-23T05:54:34;11.1;;;7.4;;
15498;SDS011;7851;52.260;6.030;2023-05-23T05:55:34;11.6;;;7.6;;
15498;SDS011;7851;52.260;6.030;2023-05-23T05:56:34;13.2;;;7.2;;
15498;SDS011;7851;52.260;6.030;2023-05-23T05:57:34;13;;;7.4;;
15498;SDS011;7851;52.260;6.030;2023-05-23T05:58:34;10;;;7.1;;
15498;SDS011;7851;52.260;6.030;2023-05-23T05:59:34;15.8;;;7.4;;
15498;SDS011;7851;52.260;6.030;2023-05-23T06:00:35;10.1;;;7;;
15498;SDS011;7851;52.260;6.030;2023-05-23T06:01:35;14.9;;;6.4;;
15498;SDS011;7851;52.260;6.030;2023-05-23T06:02:35;14.2;;;6.5;;
15498;SDS011;7851;52.260;6.030;2023-05-23T06:03:34;7.7;;;6.6;;
15498;SDS011;7851;52.260;6.030;2023-05-23T06:04:35;15.6;;;6.4;;
15498;SDS011;7851;52.260;6.030;2023-05-23T06:05:35;14.5;;;7;;
15498;SDS011;7851;52.260;6.030;2023-05-23T06:06:35;10.8;;;6.3;;
15498;SDS011;7851;52.260;6.030;2023-05-23T06:07:34;12.4;;;7.1;;
15498;SDS011;7851;52.260;6.030;2023-05-23T06:08:34;11;;;6.2;;
15498;SDS011;7851;52.260;6.030;2023-05-23T06:09:34;13.5;;;6.6;;
15498;SDS011;7851;52.260;6.030;2023-05-23T06:10:36;14.8;;;6.6;;
15498;SDS011;7851;52.260;6.030;2023-05-23T06:11:34;13.1;;;6.4;;
15498;SDS011;7851;52.260;6.030;2023-05-23T06:12:34;9.9;;;5.9;;
15498;SDS011;7851;52.260;6.030;2023-05-23T06:13:35;7.4;;;5.9;;
15498;SDS011;7851;52.260;6.030;2023-05-23T06:14:36;12.4;;;6.1;;
15498;SDS011;7851;52.260;6.030;2023-05-23T06:15:34;8.8;;;5.9;;
15498;SDS011;7851;52.260;6.030;2023-05-23T06:16:35;8.6;;;5.9;;
15498;SDS011;7851;52.260;6.030;2023-05-23T06:17:34;12.6;;;5.8;;
15498;SDS011;7851;52.260;6.030;2023-05-23T06:18:34;11.2;;;5.8;;
15498;SDS011;7851;52.260;6.030;2023-05-23T06:19:34;11.3;;;5.9;;
15498;SDS011;7851;52.260;6.030;2023-05-23T06:20:34;9.1;;;5.8;;
15498;SDS011;7851;52.260;6.030;2023-05-23T06:21:34;9.3;;;5.6;;
15498;SDS011;7851;52.260;6.030;2023-05-23T06:22:35;6.2;;;4.7;;
15498;SDS011;7851;52.260;6.030;2023-05-23T06:23:34;9.7;;;5.4;;
15498;SDS011;7851;52.260;6.030;2023-05-23T06:24:35;11.4;;;5.6;;
15498;SDS011;7851;52.260;6.030;2023-05-23T06:25:35;13.3;;;5.7;;
15498;SDS011;7851;52.260;6.030;2023-05-23T06:26:35;13.2;;;5.7;;
15498;SDS011;7851;52.260;6.030;2023-05-23T06:27:34;9.2;;;5.4;;
15498;SDS011;7851;52.260;6.030;2023-05-23T06:28:34;12.6;;;8;;
15498;SDS011;7851;52.260;6.030;2023-05-23T06:29:34;15.3;;;8.2;;
15498;SDS011;7851;52.260;6.030;2023-05-23T06:30:34;10;;;7.4;;
15498;SDS011;7851;52.260;6.030;2023-05-23T06:31:34;15.8;;;7.4;;
15498;SDS011;7851;52.260;6.030;2023-05-23T06:32:36;10.2;;;7.8;;
15498;SDS011;7851;52.260;6.030;2023-05-23T06:33:34;11.2;;;7.8;;
15498;SDS011;7851;52.260;6.030;2023-05-23T06:34:35;9.9;;;7.9;;
15498;SDS011;7851;52.260;6.030;2023-05-23T06:35:34;10.9;;;8;;
15498;SDS011;7851;52.260;6.030;2023-05-23T06:36:34;9.2;;;8.1;;
15498;SDS011;7851;52.260;6.030;2023-05-23T06:37:34;12.4;;;8;;
15498;SDS011;7851;52.260;6.030;2023-05-23T06:38:34;12.1;;;8.8;;
15498;SDS011;7851;52.260;6.030;2023-05-23T06:39:34;10.3;;;8.2;;
15498;SDS011;7851;52.260;6.030;2023-05-23T06:40:35;9.1;;;8.1;;
15498;SDS011;7851;52.260;6.030;2023-05-23T06:41:34;9.2;;;8.2;;
15498;SDS011;7851;52.260;6.030;2023-05-23T06:42:35;13.9;;;8.1;;
15498;SDS011;7851;52.260;6.030;2023-05-23T06:43:34;9.9;;;8.9;;
15498;SDS011;7851;52.260;6.030;2023-05-23T06:44:34;11.2;;;8.7;;
15498;SDS011;7851;52.260;6.030;2023-05-23T06:45:34;10;;;8.7;;
15498;SDS011;7851;52.260;6.030;2023-05-23T06:46:34;10.1;;;8.3;;
15498;SDS011;7851;52.260;6.030;2023-05-23T06:47:34;10.2;;;8.9;;
15498;SDS011;7851;52.260;6.030;2023-05-23T06:48:34;10.8;;;8.3;;
15498;SDS011;7851;52.260;6.030;2023-05-23T06:49:35;11.6;;;9.2;;
15498;SDS011;7851;52.260;6.030;2023-05-23T06:50:34;10.2;;;9.2;;
15498;SDS011;7851;52.260;6.030;2023-05-23T06:51:34;13.2;;;9.1;;
15498;SDS011;7851;52.260;6.030;2023-05-23T06:52:34;17.6;;;9.4;;
15498;SDS011;7851;52.260;6.030;2023-05-23T06:53:34;10.6;;;9.4;;
15498;SDS011;7851;52.260;6.030;2023-05-23T06:54:34;10.1;;;9;;
15498;SDS011;7851;52.260;6.030;2023-05-23T06:55:34;11.2;;;9.4;;
15498;SDS011;7851;52.260;6.030;2023-05-23T06:56:35;15.9;;;9.9;;
15498;SDS011;7851;52.260;6.030;2023-05-23T06:57:34;10.3;;;9.1;;
15498;SDS011;7851;52.260;6.030;2023-05-23T06:58:34;11.3;;;9.1;;
15498;SDS011;7851;52.260;6.030;2023-05-23T06:59:34;13.8;;;9.5;;
15498;SDS011;7851;52.260;6.030;2023-05-23T07:00:34;16.1;;;9.3;;
15498;SDS011;7851;52.260;6.030;2023-05-23T07:01:35;15.1;;;9.5;;
15498;SDS011;7851;52.260;6.030;2023-05-23T07:02:34;11.1;;;8.8;;
15498;SDS011;7851;52.260;6.030;2023-05-23T07:03:34;12.5;;;8.7;;
15498;SDS011;7851;52.260;6.030;2023-05-23T07:04:34;15.4;;;9.3;;
15498;SDS011;7851;52.260;6.030;2023-05-23T07:05:34;11.8;;;8.6;;
15498;SDS011;7851;52.260;6.030;2023-05-23T07:06:34;10.8;;;9.7;;
15498;SDS011;7851;52.260;6.030;2023-05-23T07:07:34;13;;;9.9;;
15498;SDS011;7851;52.260;6.030;2023-05-23T07:08:35;11.1;;;9.8;;
15498;SDS011;7851;52.260;6.030;2023-05-23T07:09:34;13.1;;;9.8;;
15498;SDS011;7851;52.260;6.030;2023-05-23T07:10:34;11.8;;;9.6;;
15498;SDS011;7851;52.260;6.030;2023-05-23T07:11:34;11.6;;;10.1;;
15498;SDS011;7851;52.260;6.030;2023-05-23T07:12:34;12.2;;;9.9;;
15498;SDS011;7851;52.260;6.030;2023-05-23T07:13:34;11.1;;;10.2;;
15498;SDS011;7851;52.260;6.030;2023-05-23T07:14:34;10.8;;;9.4;;
15498;SDS011;7851;52.260;6.030;2023-05-23T07:15:34;10.9;;;9.8;;
15498;SDS011;7851;52.260;6.030;2023-05-23T07:16:34;10.2;;;9.2;;
15498;SDS011;7851;52.260;6.030;2023-05-23T07:17:35;12.5;;;9.5;;
15498;SDS011;7851;52.260;6.030;2023-05-23T07:18:34;9.9;;;9;;
15498;SDS011;7851;52.260;6.030;2023-05-23T07:19:34;13.1;;;10.5;;
15498;SDS011;7851;52.260;6.030;2023-05-23T07:20:35;12.2;;;9.2;;
15498;SDS011;7851;52.260;6.030;2023-05-23T07:21:36;11.2;;;9.5;;
15498;SDS011;7851;52.260;6.030;2023-05-23T07:22:35;11.6;;;9.4;;
15498;SDS011;7851;52.260;6.030;2023-05-23T07:23:35;10.8;;;8.9;;
15498;SDS011;7851;52.260;6.030;2023-05-23T07:24:34;12.6;;;9.6;;
15498;SDS011;7851;52.260;6.030;2023-05-23T07:25:34;9.6;;;8.6;;
15498;SDS011;7851;52.260;6.030;2023-05-23T07:26:35;12.4;;;8.4;;
15498;SDS011;7851;52.260;6.030;2023-05-23T07:27:34;9;;;8.1;;
15498;SDS011;7851;52.260;6.030;2023-05-23T07:28:34;9.2;;;8.5;;
15498;SDS011;7851;52.260;6.030;2023-05-23T07:29:34;10.4;;;8.3;;
15498;SDS011;7851;52.260;6.030;2023-05-23T07:30:34;8.6;;;7.8;;
15498;SDS011;7851;52.260;6.030;2023-05-23T07:31:34;8.7;;;7.8;;
15498;SDS011;7851;52.260;6.030;2023-05-23T07:32:34;11.9;;;8.9;;
15498;SDS011;7851;52.260;6.030;2023-05-23T07:33:34;8.6;;;7.8;;
15498;SDS011;7851;52.260;6.030;2023-05-23T07:34:34;11.3;;;8;;
15498;SDS011;7851;52.260;6.030;2023-05-23T07:35:35;12.3;;;8.2;;
15498;SDS011;7851;52.260;6.030;2023-05-23T07:36:34;13;;;8.4;;
15498;SDS011;7851;52.260;6.030;2023-05-23T07:37:35;8.8;;;7.9;;
15498;SDS011;7851;52.260;6.030;2023-05-23T07:38:34;9.6;;;8.3;;
15498;SDS011;7851;52.260;6.030;2023-05-23T07:39:34;9.4;;;8.3;;
15498;SDS011;7851;52.260;6.030;2023-05-23T07:40:35;8.5;;;7.7;;
15498;SDS011;7851;52.260;6.030;2023-05-23T07:41:34;10.4;;;8.1;;
15498;SDS011;7851;52.260;6.030;2023-05-23T07:42:34;7.7;;;7;;
15498;SDS011;7851;52.260;6.030;2023-05-23T07:43:34;8.4;;;7.5;;
15498;SDS011;7851;52.260;6.030;2023-05-23T07:44:34;9.8;;;8.2;;
15498;SDS011;7851;52.260;6.030;2023-05-23T07:45:34;9;;;8.1;;
15498;SDS011;7851;52.260;6.030;2023-05-23T07:46:34;10;;;8.6;;
15498;SDS011;7851;52.260;6.030;2023-05-23T07:47:35;11.1;;;8.4;;
15498;SDS011;7851;52.260;6.030;2023-05-23T07:48:34;11.7;;;8.4;;
15498;SDS011;7851;52.260;6.030;2023-05-23T07:49:34;12.8;;;8.6;;
15498;SDS011;7851;52.260;6.030;2023-05-23T07:50:34;10.1;;;8.4;;
15498;SDS011;7851;52.260;6.030;2023-05-23T07:51:34;11.4;;;8.4;;
15498;SDS011;7851;52.260;6.030;2023-05-23T07:52:35;13.4;;;8;;
15498;SDS011;7851;52.260;6.030;2023-05-23T07:53:34;11.4;;;9.2;;
15498;SDS011;7851;52.260;6.030;2023-05-23T07:54:34;14.9;;;8.6;;
15498;SDS011;7851;52.260;6.030;2023-05-23T07:55:35;15.5;;;9.4;;
15498;SDS011;7851;52.260;6.030;2023-05-23T07:56:34;9.4;;;8.6;;
15498;SDS011;7851;52.260;6.030;2023-05-23T07:57:35;12.9;;;9.3;;
15498;SDS011;7851;52.260;6.030;2023-05-23T07:58:34;14.8;;;10.1;;
15498;SDS011;7851;52.260;6.030;2023-05-23T07:59:34;12.2;;;9.6;;
15498;SDS011;7851;52.260;6.030;2023-05-23T08:00:34;12.4;;;9.8;;
15498;SDS011;7851;52.260;6.030;2023-05-23T08:01:35;11.4;;;9.3;;
15498;SDS011;7851;52.260;6.030;2023-05-23T08:02:34;15.9;;;9.7;;
15498;SDS011;7851;52.260;6.030;2023-05-23T08:03:35;11.9;;;10.3;;
15498;SDS011;7851;52.260;6.030;2023-05-23T08:04:34;10.9;;;9.6;;
15498;SDS011;7851;52.260;6.030;2023-05-23T08:05:35;10.3;;;9.4;;
15498;SDS011;7851;52.260;6.030;2023-05-23T08:06:34;11.2;;;9.9;;
15498;SDS011;7851;52.260;6.030;2023-05-23T08:07:35;11.3;;;9.6;;
15498;SDS011;7851;52.260;6.030;2023-05-23T08:08:34;11.3;;;9.2;;
15498;SDS011;7851;52.260;6.030;2023-05-23T08:09:34;12.2;;;9.4;;
15498;SDS011;7851;52.260;6.030;2023-05-23T08:10:34;12.7;;;10.1;;
15498;SDS011;7851;52.260;6.030;2023-05-23T08:11:35;12.1;;;10;;
15498;SDS011;7851;52.260;6.030;2023-05-23T08:12:34;11.1;;;10;;
15498;SDS011;7851;52.260;6.030;2023-05-23T08:13:34;12.6;;;9.9;;
15498;SDS011;7851;52.260;6.030;2023-05-23T08:14:34;13.4;;;9.5;;
15498;SDS011;7851;52.260;6.030;2023-05-23T08:15:35;13.4;;;8.9;;
15498;SDS011;7851;52.260;6.030;2023-05-23T08:16:35;10.7;;;9.1;;
15498;SDS011;7851;52.260;6.030;2023-05-23T08:17:36;9.8;;;8.6;;
15498;SDS011;7851;52.260;6.030;2023-05-23T08:18:34;14.5;;;9.2;;
15498;SDS011;7851;52.260;6.030;2023-05-23T08:19:34;13.1;;;9.6;;
15498;SDS011;7851;52.260;6.030;2023-05-23T08:20:34;11.8;;;8.7;;
15498;SDS011;7851;52.260;6.030;2023-05-23T08:21:34;14.7;;;9.1;;
15498;SDS011;7851;52.260;6.030;2023-05-23T08:29:34;10.3;;;9.2;;
15498;SDS011;7851;52.260;6.030;2023-05-23T08:30:34;14.4;;;9.3;;
15498;SDS011;7851;52.260;6.030;2023-05-23T08:31:34;17.4;;;9.7;;
15498;SDS011;7851;52.260;6.030;2023-05-23T08:32:34;13.2;;;9.5;;
15498;SDS011;7851;52.260;6.030;2023-05-23T08:33:34;15.6;;;9.9;;
15498;SDS011;7851;52.260;6.030;2023-05-23T08:34:34;11.3;;;9.3;;
15498;SDS011;7851;52.260;6.030;2023-05-23T08:35:34;11.1;;;9.9;;
15498;SDS011;7851;52.260;6.030;2023-05-23T08:36:34;13.2;;;9.7;;
15498;SDS011;7851;52.260;6.030;2023-05-23T08:37:34;10.7;;;9.7;;
15498;SDS011;7851;52.260;6.030;2023-05-23T08:38:34;14.2;;;9.7;;
15498;SDS011;7851;52.260;6.030;2023-05-23T08:39:34;16.8;;;9.8;;
15498;SDS011;7851;52.260;6.030;2023-05-23T08:40:34;11.1;;;9.5;;
15498;SDS011;7851;52.260;6.030;2023-05-23T08:41:34;13.4;;;9.9;;
15498;SDS011;7851;52.260;6.030;2023-05-23T08:42:34;16.3;;;9.8;;
15498;SDS011;7851;52.260;6.030;2023-05-23T08:43:35;11.8;;;9.8;;
15498;SDS011;7851;52.260;6.030;2023-05-23T08:44:34;17.8;;;10;;
15498;SDS011;7851;52.260;6.030;2023-05-23T08:45:34;13.1;;;9.7;;
15498;SDS011;7851;52.260;6.030;2023-05-23T08:46:35;14.7;;;9.6;;
15498;SDS011;7851;52.260;6.030;2023-05-23T08:47:34;10.2;;;8.9;;
15498;SDS011;7851;52.260;6.030;2023-05-23T08:48:34;10.3;;;9.1;;
15498;SDS011;7851;52.260;6.030;2023-05-23T08:49:34;14.9;;;9.4;;
15498;SDS011;7851;52.260;6.030;2023-05-23T08:50:34;15.6;;;9.5;;
15498;SDS011;7851;52.260;6.030;2023-05-23T08:51:34;11.1;;;10;;
15498;SDS011;7851;52.260;6.030;2023-05-23T08:52:34;13.5;;;10.2;;
15498;SDS011;7851;52.260;6.030;2023-05-23T08:53:34;14.4;;;9.8;;
15498;SDS011;7851;52.260;6.030;2023-05-23T08:54:34;14.9;;;10.2;;
15498;SDS011;7851;52.260;6.030;2023-05-23T08:55:35;11.3;;;9.9;;
15498;SDS011;7851;52.260;6.030;2023-05-23T08:56:34;18.4;;;10.7;;
15498;SDS011;7851;52.260;6.030;2023-05-23T08:57:34;14.2;;;10.5;;
15498;SDS011;7851;52.260;6.030;2023-05-23T08:58:34;14.8;;;10.3;;
15498;SDS011;7851;52.260;6.030;2023-05-23T08:59:34;13.6;;;10.9;;
15498;SDS011;7851;52.260;6.030;2023-05-23T09:00:34;14.6;;;10.9;;
15498;SDS011;7851;52.260;6.030;2023-05-23T09:01:35;12.2;;;10.9;;
15498;SDS011;7851;52.260;6.030;2023-05-23T09:02:34;11.7;;;10.5;;
15498;SDS011;7851;52.260;6.030;2023-05-23T09:03:34;12.5;;;9.7;;
15498;SDS011;7851;52.260;6.030;2023-05-23T09:04:34;15.4;;;10.4;;
15498;SDS011;7851;52.260;6.030;2023-05-23T09:05:36;15.9;;;10.4;;
15498;SDS011;7851;52.260;6.030;2023-05-23T09:06:34;14.8;;;9.8;;
15498;SDS011;7851;52.260;6.030;2023-05-23T09:07:34;13.4;;;10.9;;
15498;SDS011;7851;52.260;6.030;2023-05-23T09:08:34;12.9;;;10.3;;
15498;SDS011;7851;52.260;6.030;2023-05-23T09:09:35;14.2;;;9.9;;
15498;SDS011;7851;52.260;6.030;2023-05-23T09:10:34;16.4;;;10.8;;
15498;SDS011;7851;52.260;6.030;2023-05-23T09:11:34;12.9;;;10.7;;
15498;SDS011;7851;52.260;6.030;2023-05-23T09:12:35;11.2;;;10.1;;
15498;SDS011;7851;52.260;6.030;2023-05-23T09:13:34;11.7;;;10.5;;
15498;SDS011;7851;52.260;6.030;2023-05-23T09:14:34;13.7;;;10.5;;
15498;SDS011;7851;52.260;6.030;2023-05-23T09:15:35;11.8;;;10.6;;
15498;SDS011;7851;52.260;6.030;2023-05-23T09:16:35;11.6;;;10.5;;
15498;SDS011;7851;52.260;6.030;2023-05-23T09:17:34;14.3;;;11.6;;
15498;SDS011;7851;52.260;6.030;2023-05-23T09:18:36;13.5;;;11.1;;
15498;SDS011;7851;52.260;6.030;2023-05-23T09:19:34;13.7;;;11.3;;
15498;SDS011;7851;52.260;6.030;2023-05-23T09:20:36;12.6;;;11.4;;
15498;SDS011;7851;52.260;6.030;2023-05-23T09:21:34;14.6;;;11.3;;
15498;SDS011;7851;52.260;6.030;2023-05-23T09:22:35;15;;;11.2;;
15498;SDS011;7851;52.260;6.030;2023-05-23T09:23:34;17.1;;;11.2;;
15498;SDS011;7851;52.260;6.030;2023-05-23T09:24:35;12.2;;;11.1;;
15498;SDS011;7851;52.260;6.030;2023-05-23T09:25:36;13.6;;;11.5;;
15498;SDS011;7851;52.260;6.030;2023-05-23T09:26:35;14.1;;;11.6;;
15498;SDS011;7851;52.260;6.030;2023-05-23T09:27:34;12.8;;;11.2;;
15498;SDS011;7851;52.260;6.030;2023-05-23T09:28:36;12.5;;;10.7;;
15498;SDS011;7851;52.260;6.030;2023-05-23T09:29:35;13.5;;;10.8;;
15498;SDS011;7851;52.260;6.030;2023-05-23T09:30:37;13.4;;;11;;
15498;SDS011;7851;52.260;6.030;2023-05-23T09:31:34;15;;;11.4;;
15498;SDS011;7851;52.260;6.030;2023-05-23T09:32:34;18.9;;;10.9;;
15498;SDS011;7851;52.260;6.030;2023-05-23T09:33:35;13.3;;;11;;
15498;SDS011;7851;52.260;6.030;2023-05-23T09:34:34;13.4;;;10.9;;
15498;SDS011;7851;52.260;6.030;2023-05-23T09:35:34;15.1;;;11.3;;
15498;SDS011;7851;52.260;6.030;2023-05-23T09:36:34;12;;;10.5;;
15498;SDS011;7851;52.260;6.030;2023-05-23T09:37:35;13;;;10.7;;
15498;SDS011;7851;52.260;6.030;2023-05-23T09:38:36;11.7;;;10.4;;
15498;SDS011;7851;52.260;6.030;2023-05-23T09:39:35;12.2;;;10.5;;
15498;SDS011;7851;52.260;6.030;2023-05-23T09:40:34;13.6;;;10.6;;
15498;SDS011;7851;52.260;6.030;2023-05-23T09:41:34;14.4;;;11.7;;
15498;SDS011;7851;52.260;6.030;2023-05-23T09:42:35;15;;;11.5;;
15498;SDS011;7851;52.260;6.030;2023-05-23T09:43:34;14.7;;;12;;
15498;SDS011;7851;52.260;6.030;2023-05-23T09:44:35;13.5;;;11.5;;
15498;SDS011;7851;52.260;6.030;2023-05-23T09:45:34;13.4;;;11.5;;
15498;SDS011;7851;52.260;6.030;2023-05-23T09:46:34;11.2;;;10.3;;
15498;SDS011;7851;52.260;6.030;2023-05-23T09:47:34;12.4;;;11;;
15498;SDS011;7851;52.260;6.030;2023-05-23T09:48:35;13.3;;;11.9;;
15498;SDS011;7851;52.260;6.030;2023-05-23T09:49:34;15.7;;;12;;
15498;SDS011;7851;52.260;6.030;2023-05-23T09:50:34;16.4;;;11.7;;
15498;SDS011;7851;52.260;6.030;2023-05-23T09:51:34;17.3;;;12.3;;
15498;SDS011;7851;52.260;6.030;2023-05-23T09:52:35;14.4;;;11.6;;